createdAt,value
2018-05-14T00:02:08.192Z,99106
2018-05-14T00:04:36.325Z,99107
2018-05-14T00:07:04.660Z,99109
2018-05-14T00:09:32.791Z,99112
2018-05-14T00:12:00.921Z,99105
2018-05-14T00:14:29.025Z,99113
2018-05-14T00:16:57.151Z,99117
2018-05-14T00:19:25.264Z,99108
2018-05-14T00:21:53.398Z,99102
2018-05-14T00:24:22.271Z,99109
2018-05-14T00:26:50.372Z,99112
2018-05-14T00:29:19.249Z,99110
2018-05-14T00:31:48.130Z,99111
2018-05-14T00:34:16.243Z,99101
2018-05-14T00:36:44.357Z,99107
2018-05-14T00:39:12.480Z,99109
2018-05-14T00:41:41.356Z,99107
2018-05-14T00:44:09.456Z,99106
2018-05-14T00:46:38.333Z,99109
2018-05-14T00:49:06.459Z,99100
2018-05-14T00:51:34.583Z,99106
2018-05-14T00:54:02.681Z,99104
2018-05-14T00:56:31.558Z,99102
2018-05-14T00:58:59.691Z,99101
2018-05-14T01:01:27.788Z,99102
2018-05-14T01:03:55.888Z,99108
2018-05-14T01:06:24.009Z,99093
2018-05-14T01:08:52.116Z,99095
2018-05-14T01:11:20.220Z,99092
2018-05-14T01:13:48.341Z,99094
2018-05-14T01:16:16.445Z,99099
2018-05-14T01:18:44.580Z,99105
2018-05-14T01:21:12.690Z,99108
2018-05-14T01:23:40.804Z,99111
2018-05-14T01:26:08.932Z,99108
2018-05-14T01:28:37.117Z,99120
2018-05-14T01:31:05.220Z,99115
2018-05-14T01:33:33.326Z,99112
2018-05-14T01:36:02.197Z,99116
2018-05-14T01:38:30.342Z,99118
2018-05-14T01:40:58.436Z,99104
2018-05-14T01:43:26.536Z,99120
2018-05-14T01:45:54.663Z,99113
2018-05-14T01:48:22.761Z,99114
2018-05-14T01:50:50.874Z,99106
2018-05-14T01:53:19.004Z,99104
2018-05-14T01:55:47.104Z,99105
2018-05-14T01:58:15.215Z,99103
2018-05-14T02:00:44.143Z,99106
2018-05-14T02:03:12.258Z,99103
2018-05-14T02:05:40.393Z,99102
2018-05-14T02:08:08.498Z,99108
2018-05-14T02:10:36.601Z,99105
2018-05-14T02:13:04.726Z,99104
2018-05-14T02:15:32.836Z,99113
2018-05-14T02:18:01.221Z,99100
2018-05-14T02:20:29.335Z,99097
2018-05-14T02:22:58.213Z,99098
2018-05-14T02:25:26.360Z,99098
2018-05-14T02:27:54.467Z,99092
2018-05-14T02:30:22.606Z,99100
2018-05-14T02:32:50.724Z,99096
2018-05-14T02:35:19.606Z,99102
2018-05-14T02:37:47.747Z,99084
2018-05-14T02:40:15.852Z,99092
2018-05-14T02:42:43.949Z,99093
2018-05-14T02:45:12.068Z,99093
2018-05-14T02:47:40.194Z,99097
2018-05-14T02:50:09.834Z,99087
2018-05-14T02:52:38.711Z,99091
2018-05-14T02:55:06.810Z,99100
2018-05-14T02:57:35.713Z,99097
2018-05-14T03:00:03.905Z,99098
2018-05-14T03:02:32.039Z,99102
2018-05-14T03:05:00.295Z,99099
2018-05-14T03:07:28.389Z,99104
2018-05-14T03:09:56.504Z,99098
2018-05-14T03:12:24.618Z,99101
2018-05-14T03:14:52.739Z,99115
2018-05-14T03:17:21.625Z,99109
2018-05-14T03:19:49.748Z,99105
2018-05-14T03:22:17.875Z,99111
2018-05-14T03:24:45.995Z,99121
2018-05-14T03:27:14.117Z,99125
2018-05-14T03:29:42.316Z,99124
2018-05-14T03:32:10.389Z,99132
2018-05-14T03:34:39.273Z,99139
2018-05-14T03:37:07.408Z,99136
2018-05-14T03:39:35.512Z,99134
2018-05-14T03:42:03.636Z,99128
2018-05-14T03:44:32.510Z,99129
2018-05-14T03:47:00.641Z,99131
2018-05-14T03:49:28.763Z,99136
2018-05-14T03:51:56.876Z,99135
2018-05-14T03:54:25.010Z,99139
2018-05-14T03:56:53.144Z,99146
2018-05-14T03:59:39.160Z,99143
2018-05-14T04:02:26.189Z,99138
2018-05-14T04:05:18.635Z,99147
2018-05-14T04:07:47.534Z,99152
2018-05-14T04:10:16.406Z,99149
2018-05-14T04:12:44.517Z,99147
2018-05-14T04:15:12.664Z,99150
2018-05-14T04:17:40.762Z,99135
2018-05-14T04:20:09.676Z,99144
2018-05-14T04:22:37.812Z,99144
2018-05-14T04:25:05.935Z,99141
2018-05-14T04:27:34.047Z,99127
2018-05-14T04:30:02.158Z,99140
2018-05-14T04:32:31.046Z,99145
2018-05-14T04:34:59.169Z,99146
2018-05-14T04:37:27.357Z,99150
2018-05-14T04:39:55.458Z,99143
2018-05-14T04:42:23.581Z,99151
2018-05-14T04:44:51.691Z,99135
2018-05-14T04:47:19.832Z,99136
2018-05-14T04:49:48.718Z,99146
2018-05-14T04:52:17.587Z,99147
2018-05-14T04:54:45.712Z,99152
2018-05-14T04:57:13.829Z,99140
2018-05-14T04:59:41.975Z,99145
2018-05-14T05:02:10.082Z,99140
2018-05-14T05:04:38.183Z,99147
2018-05-14T05:07:06.314Z,99158
2018-05-14T05:09:34.420Z,99156
2018-05-14T05:12:02.534Z,99154
2018-05-14T05:14:31.447Z,99159
2018-05-14T05:16:59.564Z,99170
2018-05-14T05:19:27.705Z,99157
2018-05-14T05:21:55.816Z,99159
2018-05-14T05:24:24.682Z,99162
2018-05-14T05:26:52.788Z,99159
2018-05-14T05:29:20.900Z,99162
2018-05-14T05:31:49.807Z,99156
2018-05-14T05:34:18.676Z,99162
2018-05-14T05:36:46.772Z,99166
2018-05-14T05:39:15.653Z,99162
2018-05-14T05:41:43.757Z,99165
2018-05-14T05:44:11.892Z,99165
2018-05-14T05:46:40.026Z,99163
2018-05-14T05:49:08.165Z,99160
2018-05-14T05:51:36.296Z,99157
2018-05-14T05:54:04.400Z,99150
2018-05-14T05:56:32.521Z,99158
2018-05-14T05:59:00.617Z,99164
2018-05-14T06:01:28.746Z,99156
2018-05-14T06:03:56.895Z,99147
2018-05-14T06:06:25.069Z,99158
2018-05-14T06:08:53.280Z,99157
2018-05-14T06:11:21.392Z,99162
2018-05-14T06:13:50.266Z,99160
2018-05-14T06:16:19.160Z,99157
2018-05-14T06:18:48.086Z,99152
2018-05-14T06:21:17.087Z,99157
2018-05-14T06:23:45.194Z,99153
2018-05-14T06:26:13.334Z,99158
2018-05-14T06:28:41.519Z,99159
2018-05-14T06:31:09.635Z,99156
2018-05-14T06:33:37.764Z,99164
2018-05-14T06:36:05.881Z,99169
2018-05-14T06:38:33.977Z,99168
2018-05-14T06:41:02.864Z,99173
2018-05-14T06:43:31.020Z,99177
2018-05-14T06:45:59.132Z,99172
2018-05-14T06:48:27.254Z,99174
2018-05-14T06:50:55.362Z,99169
2018-05-14T06:53:23.489Z,99187
2018-05-14T06:55:52.358Z,99181
2018-05-14T06:58:20.486Z,99188
2018-05-14T07:00:48.605Z,99197
2018-05-14T07:03:16.715Z,99190
2018-05-14T07:05:44.865Z,99187
2018-05-14T07:08:12.978Z,99190
2018-05-14T07:10:41.097Z,99186
2018-05-14T07:13:09.239Z,99188
2018-05-14T07:15:37.349Z,99185
2018-05-14T07:18:05.564Z,99188
2018-05-14T07:20:34.430Z,99187
2018-05-14T07:23:02.547Z,99183
2018-05-14T07:25:30.759Z,99190
2018-05-14T07:27:59.583Z,99193
2018-05-14T07:30:27.697Z,99190
2018-05-14T07:32:56.593Z,99190
2018-05-14T07:35:25.470Z,99182
2018-05-14T07:37:53.587Z,99188
2018-05-14T07:40:21.729Z,99198
2018-05-14T07:42:50.609Z,99194
2018-05-14T07:45:18.769Z,99195
2018-05-14T07:47:46.878Z,99193
2018-05-14T07:50:14.982Z,99198
2018-05-14T07:52:43.093Z,99202
2018-05-14T07:55:11.211Z,99201
2018-05-14T07:57:40.107Z,99199
2018-05-14T08:00:08.967Z,99195
2018-05-14T08:02:37.088Z,99196
2018-05-14T08:05:05.980Z,99203
2018-05-14T08:07:34.859Z,99206
2018-05-14T08:10:04.471Z,99198
2018-05-14T08:12:33.365Z,99202
2018-05-14T08:15:03.892Z,99201
2018-05-14T08:17:32.017Z,99205
2018-05-14T08:20:00.113Z,99202
2018-05-14T08:22:28.221Z,99210
2018-05-14T08:24:56.351Z,99211
2018-05-14T08:27:24.457Z,99220
2018-05-14T08:29:52.559Z,99213
2018-05-14T08:32:20.705Z,99209
2018-05-14T08:34:48.820Z,99209
2018-05-14T08:37:16.934Z,99193
2018-05-14T08:39:45.054Z,99199
2018-05-14T08:42:13.169Z,99200
2018-05-14T08:44:42.049Z,99199
2018-05-14T08:47:10.947Z,99202
2018-05-14T08:49:39.858Z,99199
2018-05-14T08:52:08.731Z,99198
2018-05-14T08:54:37.681Z,99193
2018-05-14T08:57:06.516Z,99184
2018-05-14T08:59:34.628Z,99198
2018-05-14T09:02:02.728Z,99220
2018-05-14T09:04:30.839Z,99203
2018-05-14T09:06:58.941Z,99210
2018-05-14T09:09:27.836Z,99204
2018-05-14T09:11:56.703Z,99210
2018-05-14T09:14:24.809Z,99208
2018-05-14T09:16:53.732Z,99211
2018-05-14T09:19:21.894Z,99204
2018-05-14T09:21:49.957Z,99223
2018-05-14T09:24:18.838Z,99216
2018-05-14T09:26:47.729Z,99220
2018-05-14T09:29:15.849Z,99218
2018-05-14T09:31:43.948Z,99235
2018-05-14T09:34:12.053Z,99244
2018-05-14T09:36:40.193Z,99233
2018-05-14T09:39:08.305Z,99227
2018-05-14T09:41:36.422Z,99215
2018-05-14T09:44:04.526Z,99233
2018-05-14T09:46:32.632Z,99257
2018-05-14T09:49:00.756Z,99235
2018-05-14T09:51:28.848Z,99256
2018-05-14T09:53:56.945Z,99269
2018-05-14T09:56:25.062Z,99243
2018-05-14T09:58:53.938Z,99244
2018-05-14T10:01:22.083Z,99232
2018-05-14T10:03:50.186Z,99236
2018-05-14T10:06:18.293Z,99242
2018-05-14T10:08:47.182Z,99234
2018-05-14T10:11:16.060Z,99241
2018-05-14T10:13:44.193Z,99245
2018-05-14T10:16:12.305Z,99255
2018-05-14T10:18:40.476Z,99261
2018-05-14T10:21:09.315Z,99239
2018-05-14T10:23:38.192Z,99235
2018-05-14T10:26:07.066Z,99272
2018-05-14T10:28:35.181Z,99251
2018-05-14T10:31:04.050Z,99246
2018-05-14T10:33:32.181Z,99253
2018-05-14T10:36:00.298Z,99255
2018-05-14T10:38:28.403Z,99243
2018-05-14T10:40:57.304Z,99261
2018-05-14T10:43:26.175Z,99248
2018-05-14T10:45:54.286Z,99237
2018-05-14T10:48:22.424Z,99228
2018-05-14T10:50:50.519Z,99237
2018-05-14T10:53:19.396Z,99237
2018-05-14T10:55:47.517Z,99233
2018-05-14T10:58:15.623Z,99243
2018-05-14T11:00:43.748Z,99248
2018-05-14T11:03:12.627Z,99250
2018-05-14T11:05:40.742Z,99239
2018-05-14T11:08:08.856Z,99248
2018-05-14T11:10:37.043Z,99246
2018-05-14T11:13:05.843Z,99253
2018-05-14T11:15:33.971Z,99245
2018-05-14T11:18:02.094Z,99256
2018-05-14T11:20:30.202Z,99270
2018-05-14T11:22:59.088Z,99266
2018-05-14T11:25:27.989Z,99264
2018-05-14T11:27:56.982Z,99265
2018-05-14T11:30:25.764Z,99259
2018-05-14T11:32:53.871Z,99258
2018-05-14T11:35:22.074Z,99277
2018-05-14T11:37:50.121Z,99279
2018-05-14T11:40:18.239Z,99282
2018-05-14T11:42:46.337Z,99281
2018-05-14T11:45:15.224Z,99271
2018-05-14T11:47:43.344Z,99255
2018-05-14T11:50:11.465Z,99260
2018-05-14T11:52:39.566Z,99278
2018-05-14T11:55:07.699Z,99257
2018-05-14T11:57:35.806Z,99253
2018-05-14T12:00:03.949Z,99251
2018-05-14T12:02:32.066Z,99240
2018-05-14T12:05:00.221Z,99244
2018-05-14T12:07:28.334Z,99239
2018-05-14T12:09:56.451Z,99247
2018-05-14T12:12:24.553Z,99253
2018-05-14T12:14:52.676Z,99258
2018-05-14T12:17:21.556Z,99240
2018-05-14T12:19:49.703Z,99244
2018-05-14T12:22:17.859Z,99250
2018-05-14T12:24:45.975Z,99251
2018-05-14T12:27:14.125Z,99244
2018-05-14T12:29:42.251Z,99249
2018-05-14T12:32:11.185Z,99247
2018-05-14T12:34:39.245Z,99236
2018-05-14T12:37:08.162Z,99276
2018-05-14T12:39:36.273Z,99249
2018-05-14T12:42:11.096Z,99258
2018-05-14T12:44:39.237Z,99250
2018-05-14T12:47:07.385Z,99244
2018-05-14T12:49:36.288Z,99254
2018-05-14T12:52:05.160Z,99243
2018-05-14T12:54:33.285Z,99259
2018-05-14T12:57:01.395Z,99287
2018-05-14T12:59:29.513Z,99246
2018-05-14T13:01:58.386Z,99268
2018-05-14T13:04:26.498Z,99244
2018-05-14T13:06:54.697Z,99260
2018-05-14T13:09:22.745Z,99288
2018-05-14T13:11:51.617Z,99267
2018-05-14T13:14:19.736Z,99255
2018-05-14T13:16:47.845Z,99234
2018-05-14T13:19:16.064Z,99260
2018-05-14T13:21:44.090Z,99242
2018-05-14T13:24:12.217Z,99248
2018-05-14T13:26:41.096Z,99252
2018-05-14T13:29:09.234Z,99256
2018-05-14T13:31:37.505Z,99245
2018-05-14T13:34:05.609Z,99237
2018-05-14T13:36:33.723Z,99247
2018-05-14T13:39:02.601Z,99244
2018-05-14T13:41:30.735Z,99233
2018-05-14T13:43:58.833Z,99239
2018-05-14T13:46:26.932Z,99240
2018-05-14T13:48:55.081Z,99235
2018-05-14T13:51:23.185Z,99242
2018-05-14T13:53:51.281Z,99234
2018-05-14T13:56:20.163Z,99240
2018-05-14T13:58:49.037Z,99250
2018-05-14T14:01:17.160Z,99237
2018-05-14T14:03:45.330Z,99239
2018-05-14T14:06:14.260Z,99262
2018-05-14T14:08:42.365Z,99236
2018-05-14T14:11:10.524Z,99239
2018-05-14T14:13:38.623Z,99243
2018-05-14T14:16:06.738Z,99237
2018-05-14T14:18:35.604Z,99238
2018-05-14T14:21:03.713Z,99268
2018-05-14T14:23:32.728Z,99244
2018-05-14T14:26:01.471Z,99251
2018-05-14T14:28:29.585Z,99264
2018-05-14T14:30:57.696Z,99249
2018-05-14T14:33:25.818Z,99273
2018-05-14T14:35:54.772Z,99249
2018-05-14T14:38:23.641Z,99258
2018-05-14T14:40:51.777Z,99250
2018-05-14T14:43:20.702Z,99247
2018-05-14T14:45:48.817Z,99251
2018-05-14T14:48:16.930Z,99267
2018-05-14T14:50:45.072Z,99252
2018-05-14T14:53:13.177Z,99254
2018-05-14T14:55:41.305Z,99280
2018-05-14T14:58:09.424Z,99294
2018-05-14T15:00:37.602Z,99275
2018-05-14T15:03:05.717Z,99256
2018-05-14T15:05:34.641Z,99258
2018-05-14T15:08:02.775Z,99280
2018-05-14T15:10:31.693Z,99258
2018-05-14T15:13:00.588Z,99291
2018-05-14T15:15:28.693Z,99250
2018-05-14T15:17:56.810Z,99274
2018-05-14T15:20:24.921Z,99248
2018-05-14T15:22:53.053Z,99251
2018-05-14T15:25:21.208Z,99250
2018-05-14T15:27:50.103Z,99253
2018-05-14T15:30:18.211Z,99253
2018-05-14T15:32:46.339Z,99255
2018-05-14T15:35:14.447Z,99253
2018-05-14T15:37:42.568Z,99234
2018-05-14T15:40:11.433Z,99241
2018-05-14T15:42:39.584Z,99241
2018-05-14T15:45:07.691Z,99238
2018-05-14T15:47:35.808Z,99261
2018-05-14T15:50:04.060Z,99246
2018-05-14T15:52:32.137Z,99249
2018-05-14T15:55:01.008Z,99271
2018-05-14T15:57:29.117Z,99260
2018-05-14T15:59:58.008Z,99251
2018-05-14T16:02:26.891Z,99253
2018-05-14T16:04:55.031Z,99257
2018-05-14T16:07:23.168Z,99249
2018-05-14T16:09:52.049Z,99246
2018-05-14T16:12:20.943Z,99266
2018-05-14T16:14:50.007Z,99248
2018-05-14T16:17:18.121Z,99242
2018-05-14T16:19:47.018Z,99243
2018-05-14T16:22:15.891Z,99255
2018-05-14T16:24:43.997Z,99261
2018-05-14T16:27:12.877Z,99267
2018-05-14T16:29:41.759Z,99269
2018-05-14T16:32:09.895Z,99250
2018-05-14T16:34:38.006Z,99270
2018-05-14T16:37:06.136Z,99267
2018-05-14T16:39:34.259Z,99286
2018-05-14T16:42:02.501Z,99278
2018-05-14T16:44:30.521Z,99282
2018-05-14T16:46:58.644Z,99278
2018-05-14T16:49:26.804Z,99275
2018-05-14T16:51:55.714Z,99274
2018-05-14T16:54:23.865Z,99287
2018-05-14T16:56:52.754Z,99271
2018-05-14T16:59:21.653Z,99276
2018-05-14T17:01:50.500Z,99294
2018-05-14T17:04:18.631Z,99284
2018-05-14T17:06:47.517Z,99281
2018-05-14T17:09:15.620Z,99291
2018-05-14T17:11:43.782Z,99287
2018-05-14T17:14:12.659Z,99289
2018-05-14T17:16:40.809Z,99286
2018-05-14T17:19:09.684Z,99298
2018-05-14T17:21:37.819Z,99312
2018-05-14T17:24:05.937Z,99283
2018-05-14T17:26:34.091Z,99293
2018-05-14T17:29:03.459Z,99291
2018-05-14T17:31:31.564Z,99288
2018-05-14T17:34:00.448Z,99290
2018-05-14T17:36:28.563Z,99297
2018-05-14T17:38:56.669Z,99288
2018-05-14T17:41:24.792Z,99305
2018-05-14T17:43:53.691Z,99322
2018-05-14T17:46:22.558Z,99321
2018-05-14T17:48:50.685Z,99312
2018-05-14T17:51:18.785Z,99308
2018-05-14T17:53:46.905Z,99314
2018-05-14T17:56:15.795Z,99314
2018-05-14T17:58:43.944Z,99309
2018-05-14T18:01:12.097Z,99317
2018-05-14T18:03:40.230Z,99313
2018-05-14T18:06:09.118Z,99324
2018-05-14T18:08:37.237Z,99314
2018-05-14T18:11:05.441Z,99316
2018-05-14T18:13:34.286Z,99318
2018-05-14T18:16:03.171Z,99327
2018-05-14T18:18:31.280Z,99336
2018-05-14T18:21:00.330Z,99324
2018-05-14T18:23:28.458Z,99325
2018-05-14T18:26:02.050Z,99334
2018-05-14T18:28:35.582Z,99333
2018-05-14T18:31:03.697Z,99326
2018-05-14T18:33:31.867Z,99329
2018-05-14T18:35:59.994Z,99339
2018-05-14T18:38:28.112Z,99339
2018-05-14T18:40:56.917Z,99337
2018-05-14T18:43:25.038Z,99345
2018-05-14T18:45:53.168Z,99352
2018-05-14T18:48:21.282Z,99349
2018-05-14T18:50:50.177Z,99360
2018-05-14T18:53:19.122Z,99362
2018-05-14T18:55:47.248Z,99356
2018-05-14T18:58:16.130Z,99358
2018-05-14T19:00:45.053Z,99364
2018-05-14T19:03:13.165Z,99367
2018-05-14T19:05:41.290Z,99370
2018-05-14T19:08:10.172Z,99363
2018-05-14T19:10:45.636Z,99374
2018-05-14T19:13:13.757Z,99377
2018-05-14T19:15:47.467Z,99385
2018-05-14T19:18:15.606Z,99387
2018-05-14T19:20:43.704Z,99392
2018-05-14T19:23:17.478Z,99392
2018-05-14T19:25:45.597Z,99399
2018-05-14T19:28:19.424Z,99403
2018-05-14T19:30:47.526Z,99406
2018-05-14T19:33:21.944Z,99398
2018-05-14T19:35:56.464Z,99401
2018-05-14T19:38:24.525Z,99399
2018-05-14T19:40:52.634Z,99399
2018-05-14T19:43:21.529Z,99406
2018-05-14T19:45:50.401Z,99408
2018-05-14T19:48:18.529Z,99404
2018-05-14T19:50:46.670Z,99406
2018-05-14T19:53:15.557Z,99412
2018-05-14T19:55:44.443Z,99410
2018-05-14T19:58:12.580Z,99411
2018-05-14T20:00:40.692Z,99412
2018-05-14T20:03:08.835Z,99407
2018-05-14T20:05:36.945Z,99416
2018-05-14T20:08:05.064Z,99417
2018-05-14T20:10:33.201Z,99422
2018-05-14T20:13:01.327Z,99418
2018-05-14T20:15:29.456Z,99412
2018-05-14T20:17:57.584Z,99410
2018-05-14T20:20:25.713Z,99419
2018-05-14T20:22:53.813Z,99409
2018-05-14T20:25:22.756Z,99410
2018-05-14T20:27:50.874Z,99408
2018-05-14T20:30:19.769Z,99413
2018-05-14T20:32:48.696Z,99417
2018-05-14T20:35:16.785Z,99413
2018-05-14T20:37:44.907Z,99414
2018-05-14T20:40:13.805Z,99416
2018-05-14T20:42:41.919Z,99417
2018-05-14T20:45:10.051Z,99416
2018-05-14T20:47:38.204Z,99418
2018-05-14T20:50:06.346Z,99425
2018-05-14T20:52:34.449Z,99419
2018-05-14T20:55:02.566Z,99422
2018-05-14T20:57:30.669Z,99423
2018-05-14T20:59:59.546Z,99426
2018-05-14T21:02:27.660Z,99434
2018-05-14T21:04:55.781Z,99427
2018-05-14T21:07:23.917Z,99429
2018-05-14T21:09:52.061Z,99433
2018-05-14T21:12:20.938Z,99436
2018-05-14T21:14:49.128Z,99443
2018-05-14T21:17:17.311Z,99440
2018-05-14T21:19:46.198Z,99437
2018-05-14T21:22:14.293Z,99442
2018-05-14T21:24:43.191Z,99453
2018-05-14T21:27:12.072Z,99442
2018-05-14T21:29:40.969Z,99442
2018-05-14T21:32:09.835Z,99448
2018-05-14T21:34:37.967Z,99445
2018-05-14T21:37:06.084Z,99451
2018-05-14T21:39:34.176Z,99449
2018-05-14T21:42:02.313Z,99453
2018-05-14T21:44:30.421Z,99454
2018-05-14T21:46:58.533Z,99453
2018-05-14T21:49:27.425Z,99449
2018-05-14T21:51:56.301Z,99452
2018-05-14T21:54:24.404Z,99451
2018-05-14T21:56:53.282Z,99456
2018-05-14T21:59:21.395Z,99457
2018-05-14T22:01:49.612Z,99456
2018-05-14T22:04:17.634Z,99464
2018-05-14T22:06:46.510Z,99464
2018-05-14T22:09:15.391Z,99465
2018-05-14T22:11:43.496Z,99471
2018-05-14T22:14:12.373Z,99460
2018-05-14T22:16:40.494Z,99468
2018-05-14T22:19:08.614Z,99459
2018-05-14T22:21:36.721Z,99463
2018-05-14T22:24:05.601Z,99461
2018-05-14T22:26:34.467Z,99457
2018-05-14T22:29:02.629Z,99461
2018-05-14T22:31:30.733Z,99460
2018-05-14T22:33:58.853Z,99457
2018-05-14T22:36:26.984Z,99458
2018-05-14T22:38:55.089Z,99451
2018-05-14T22:41:23.981Z,99447
2018-05-14T22:43:52.853Z,99453
2018-05-14T22:46:20.953Z,99451
2018-05-14T22:48:49.834Z,99450
2018-05-14T22:51:17.932Z,99440
2018-05-14T22:53:46.824Z,99449
2018-05-14T22:56:15.706Z,99453
2018-05-14T22:58:43.827Z,99441
2018-05-14T23:01:11.952Z,99445
2018-05-14T23:03:40.061Z,99441
2018-05-14T23:06:08.937Z,99444
2018-05-14T23:08:37.043Z,99448
2018-05-14T23:11:05.156Z,99444
2018-05-14T23:13:33.258Z,99450
2018-05-14T23:16:02.153Z,99440
2018-05-14T23:18:30.263Z,99444
2018-05-14T23:20:58.395Z,99446
2018-05-14T23:23:26.492Z,99412
2018-05-14T23:25:54.602Z,99449
2018-05-14T23:28:22.718Z,99445
2018-05-14T23:30:50.823Z,99448
2018-05-14T23:33:18.949Z,99449
2018-05-14T23:35:47.057Z,99447
2018-05-14T23:38:15.163Z,99451
2018-05-14T23:40:44.071Z,99445
2018-05-14T23:43:12.236Z,99453
2018-05-14T23:45:41.111Z,99449
2018-05-14T23:48:09.223Z,99446
2018-05-14T23:50:37.331Z,99443
2018-05-14T23:53:05.457Z,99437
2018-05-14T23:55:34.323Z,99438
2018-05-14T23:58:02.436Z,99450
